sensor_id;sensor_type;location;lat;lon;timestamp;pressure;altitude;pressure_sealevel;temperature;humidity
46382;BME280;66809;52.974;-2.514;2023-04-04T00:01:38;1021.7537578610012;;;4.791014579456051;35.330919156003056
46382;BME280;66809;52.974;-2.514;2023-04-04T00:03:38;1021.7530220349487;;;4.7787981153786445;35.34912950576213
46382;BME280;66809;52.974;-2.514;2023-04-04T00:05:39;1021.7519712311516;;;4.774152689920092;35.363249131575316
46382;BME280;66809;52.974;-2.514;2023-04-04T00:07:38;1021.7489422786933;;;4.765842968036038;35.37027018793687
46382;BME280;66809;52.974;-2.514;2023-04-04T00:09:39;1021.7448614457273;;;4.7516287320447335;35.38243979464592
46382;BME280;66809;52.974;-2.514;2023-04-04T00:11:40;1021.7421563915468;;;4.739010795424386;35.383249558973375
46382;BME280;66809;52.974;-2.514;2023-04-04T00:13:39;1021.7384667858387;;;4.721602751384018;35.38298543910267
46382;BME280;66809;52.974;-2.514;2023-04-04T00:15:38;1021.7347085405589;;;4.715395217771122;35.3719126081154
46382;BME280;66809;52.974;-2.514;2023-04-04T00:17:39;1021.730664715947;;;4.704968878649282;35.35617395219412
46382;BME280;66809;52.974;-2.514;2023-04-04T00:19:38;1021.72574173547;;;4.693786399996655;35.33588290861985
46382;BME280;66809;52.974;-2.514;2023-04-04T00:21:38;1021.721283620527;;;4.6862568243675335;35.317247772660934
46382;BME280;66809;52.974;-2.514;2023-04-04T00:23:39;1021.7189509752391;;;4.673486457981815;35.30006952340438
46382;BME280;66809;52.974;-2.514;2023-04-04T00:25:39;1021.7182507526079;;;4.666884066995964;35.28027246007257
46382;BME280;66809;52.974;-2.514;2023-04-04T00:27:38;1021.7179576266357;;;4.6600350267282;35.26347645843466
46382;BME280;66809;52.974;-2.514;2023-04-04T00:29:39;1021.7165374771482;;;4.639713448482212;35.245157910155186
46382;BME280;66809;52.974;-2.514;2023-04-04T00:31:39;1021.7136445354306;;;4.620156411299201;35.22334363497812
46382;BME280;66809;52.974;-2.514;2023-04-04T00:33:38;1021.7103729842675;;;4.604470708538757;35.19600642518673
46382;BME280;66809;52.974;-2.514;2023-04-04T00:35:39;1021.708305397534;;;4.586735021989768;35.17527671995209
46382;BME280;66809;52.974;-2.514;2023-04-04T00:37:39;1021.7065272928222;;;4.572033515232357;35.14816536910389
46382;BME280;66809;52.974;-2.514;2023-04-04T00:39:38;1021.7050872078415;;;4.557189175698624;35.12658432810895
46382;BME280;66809;52.974;-2.514;2023-04-04T00:41:39;1021.7047552648987;;;4.557708952890829;35.10461473669443
46382;BME280;66809;52.974;-2.514;2023-04-04T00:43:39;1021.7051154020076;;;4.546618333575967;35.08605043760375
46382;BME280;66809;52.974;-2.514;2023-04-04T00:45:39;1021.705179619299;;;4.533578553479497;35.06274657566804
46382;BME280;66809;52.974;-2.514;2023-04-04T00:47:42;1021.7051500152788;;;4.509953374127088;35.044297325173964
46382;BME280;66809;52.974;-2.514;2023-04-04T00:49:39;1021.7060685602505;;;4.508834870876035;35.02360671884062
46382;BME280;66809;52.974;-2.514;2023-04-04T00:51:38;1021.706232378777;;;4.498495018458934;35.00359376228566
46382;BME280;66809;52.974;-2.514;2023-04-04T00:53:38;1021.7067224283023;;;4.487337214106611;34.97543591517994
46382;BME280;66809;52.974;-2.514;2023-04-04T00:55:38;1021.7076356870976;;;4.471955214426356;34.94805378061589
46382;BME280;66809;52.974;-2.514;2023-04-04T00:57:38;1021.7101710728546;;;4.471080393800833;34.924461834014984
46382;BME280;66809;52.974;-2.514;2023-04-04T00:59:38;1021.7130098395778;;;4.461191261042418;34.89989023533199
46382;BME280;66809;52.974;-2.514;2023-04-04T01:01:39;1021.7165038701197;;;4.455915812965075;34.87309785646609
46382;BME280;66809;52.974;-2.514;2023-04-04T01:03:38;1021.718275999978;;;4.432299100505273;34.84283347510726
46382;BME280;66809;52.974;-2.514;2023-04-04T01:05:39;1021.7211454449088;;;4.40472702944076;34.81585802789376
46382;BME280;66809;52.974;-2.514;2023-04-04T01:07:39;1021.7251131413107;;;4.387395908124518;34.788886180991405
46382;BME280;66809;52.974;-2.514;2023-04-04T01:09:39;1021.7283632894398;;;4.362997865839484;34.76134324951674
46382;BME280;66809;52.974;-2.514;2023-04-04T01:11:39;1021.7293189856707;;;4.3421045103830425;34.744674797406596
46382;BME280;66809;52.974;-2.514;2023-04-04T01:13:38;1021.7304268337114;;;4.337667474508149;34.72935342817695
46382;BME280;66809;52.974;-2.514;2023-04-04T01:15:38;1021.7313584177465;;;4.319553264914627;34.706596739607576
46382;BME280;66809;52.974;-2.514;2023-04-04T01:17:39;1021.7321736786115;;;4.309310781036599;34.683667933046415
46382;BME280;66809;52.974;-2.514;2023-04-04T01:19:45;1021.7348213075104;;;4.289502485726454;34.66771965963905
46382;BME280;66809;52.974;-2.514;2023-04-04T01:21:39;1021.7379623285526;;;4.27125387119962;34.64283516477913
46382;BME280;66809;52.974;-2.514;2023-04-04T01:23:46;1021.7388591267475;;;4.257977206938474;34.61165019555934
46382;BME280;66809;52.974;-2.514;2023-04-04T01:25:39;1021.7377572877871;;;4.243557951525863;34.58338513121266
46382;BME280;66809;52.974;-2.514;2023-04-04T01:27:38;1021.735695419672;;;4.219814785864829;34.55079581564561
46382;BME280;66809;52.974;-2.514;2023-04-04T01:29:39;1021.7333581566473;;;4.192232163044352;34.530253168369754
46382;BME280;66809;52.974;-2.514;2023-04-04T01:31:40;1021.7316738055749;;;4.164269744276103;34.51323797939041
46382;BME280;66809;52.974;-2.514;2023-04-04T01:33:44;1021.730524036667;;;4.141230139027308;34.49917273146731
46382;BME280;66809;52.974;-2.514;2023-04-04T01:35:44;1021.7280386139383;;;4.110866184386624;34.48250863389037
46382;BME280;66809;52.974;-2.514;2023-04-04T01:37:44;1021.7251450907968;;;4.071755012424245;34.47894792033696
46382;BME280;66809;52.974;-2.514;2023-04-04T01:39:43;1021.7209465383967;;;4.033171400789168;34.47657761834016
46382;BME280;66809;52.974;-2.514;2023-04-04T01:41:39;1021.7157749708265;;;3.9809526510340256;34.47239621619052
46382;BME280;66809;52.974;-2.514;2023-04-04T01:43:39;1021.710977700791;;;3.937655848769111;34.46774312072364
46382;BME280;66809;52.974;-2.514;2023-04-04T01:45:38;1021.7058324005183;;;3.885557777336065;34.46666595498866
46382;BME280;66809;52.974;-2.514;2023-04-04T01:47:39;1021.7004821105912;;;3.8509578166531275;34.468375492361716
46382;BME280;66809;52.974;-2.514;2023-04-04T01:49:38;1021.6946111820637;;;3.790282317993697;34.47134595911319
46382;BME280;66809;52.974;-2.514;2023-04-04T01:51:38;1021.6899024530558;;;3.7451863638140543;34.47546815349056
46382;BME280;66809;52.974;-2.514;2023-04-04T01:53:39;1021.6858349093488;;;3.705191401994645;34.485119782439845
46382;BME280;66809;52.974;-2.514;2023-04-04T01:55:38;1021.6808178136647;;;3.6587008474222906;34.49903263567227
46382;BME280;66809;52.974;-2.514;2023-04-04T01:57:38;1021.6751849537684;;;3.6105821723718288;34.51127016164582
46382;BME280;66809;52.974;-2.514;2023-04-04T01:59:39;1021.669600593074;;;3.572511236079435;34.519636479175574
46382;BME280;66809;52.974;-2.514;2023-04-04T02:01:39;1021.6632760175854;;;3.5217461439127433;34.53391983147115
46382;BME280;66809;52.974;-2.514;2023-04-04T02:03:38;1021.6580342465164;;;3.4863146107850578;34.55082456862363
46382;BME280;66809;52.974;-2.514;2023-04-04T02:05:39;1021.6511509413485;;;3.438478246166522;34.566118219345945
46382;BME280;66809;52.974;-2.514;2023-04-04T02:07:39;1021.6436081543272;;;3.3799570052679093;34.58097736732088
46382;BME280;66809;52.974;-2.514;2023-04-04T02:09:38;1021.6357271334525;;;3.3270392025825957;34.5983679449095
46382;BME280;66809;52.974;-2.514;2023-04-04T02:11:39;1021.6273784929529;;;3.2734758833095166;34.61501560999614
46382;BME280;66809;52.974;-2.514;2023-04-04T02:13:39;1021.6180965230274;;;3.1934166626438216;34.64156789819825
46382;BME280;66809;52.974;-2.514;2023-04-04T02:15:38;1021.6093027420271;;;3.120389114443066;34.68012965546066
46382;BME280;66809;52.974;-2.514;2023-04-04T02:17:39;1021.6002033610716;;;3.043885119788635;34.726299850694076
46382;BME280;66809;52.974;-2.514;2023-04-04T02:19:39;1021.5901588909942;;;2.9799361854736595;34.773045302636646
46382;BME280;66809;52.974;-2.514;2023-04-04T02:21:38;1021.5768039324918;;;2.9047327645070142;34.820297115392165
46382;BME280;66809;52.974;-2.514;2023-04-04T02:23:39;1021.5632147452685;;;2.828319577353801;34.87093327872325
46382;BME280;66809;52.974;-2.514;2023-04-04T02:25:38;1021.5507338035712;;;2.7485811755389498;34.926083438307266
46382;BME280;66809;52.974;-2.514;2023-04-04T02:27:38;1021.5395149584477;;;2.6814163566901557;34.988341729807004
46382;BME280;66809;52.974;-2.514;2023-04-04T02:29:39;1021.5291575629789;;;2.6136736072454316;35.03839602557616
46382;BME280;66809;52.974;-2.514;2023-04-04T02:31:38;1021.5173574118552;;;2.5494258912626933;35.081861258130694
46382;BME280;66809;52.974;-2.514;2023-04-04T02:33:39;1021.503520814415;;;2.4796618658305536;35.12934082575906
46382;BME280;66809;52.974;-2.514;2023-04-04T02:35:39;1021.4891564250235;;;2.426312161022696;35.174398352119006
46382;BME280;66809;52.974;-2.514;2023-04-04T02:37:38;1021.4754861246163;;;2.366492093791705;35.22030472312333
46382;BME280;66809;52.974;-2.514;2023-04-04T02:39:39;1021.4627801117193;;;2.31333570952888;35.26561446296788
46382;BME280;66809;52.974;-2.514;2023-04-04T02:41:38;1021.4490789598472;;;2.2583562938215107;35.31141981365303
46382;BME280;66809;52.974;-2.514;2023-04-04T02:43:38;1021.4340380608432;;;2.192162856321256;35.365914928711966
46382;BME280;66809;52.974;-2.514;2023-04-04T02:45:39;1021.4184334318844;;;2.1360911564491514;35.42331074258375
46382;BME280;66809;52.974;-2.514;2023-04-04T02:47:39;1021.4022143312528;;;2.069912924200526;35.483481658159285
46382;BME280;66809;52.974;-2.514;2023-04-04T02:49:39;1021.3847882143424;;;2.0175041975557964;35.538628077585706
46382;BME280;66809;52.974;-2.514;2023-04-04T02:51:38;1021.3672846154684;;;1.9530986426559531;35.59252789553223
46382;BME280;66809;52.974;-2.514;2023-04-04T02:53:38;1021.3482021666133;;;1.8894858742871905;35.64546153641591
46382;BME280;66809;52.974;-2.514;2023-04-04T02:55:39;1021.328828351511;;;1.8319792676166176;35.70087087468755
46382;BME280;66809;52.974;-2.514;2023-04-04T02:57:38;1021.3100856035177;;;1.7736089631050311;35.75240687769978
46382;BME280;66809;52.974;-2.514;2023-04-04T02:59:39;1021.290670552167;;;1.7154893075481341;35.80728621374213
46382;BME280;66809;52.974;-2.514;2023-04-04T03:01:38;1021.2718038811074;;;1.673270071945035;35.85682238525599
46382;BME280;66809;52.974;-2.514;2023-04-04T03:03:38;1021.2530752869641;;;1.6253832578769776;35.90402508570008
46382;BME280;66809;52.974;-2.514;2023-04-04T03:05:39;1021.235816320761;;;1.581193081483537;35.953312343100734
46382;BME280;66809;52.974;-2.514;2023-04-04T03:07:38;1021.218030109071;;;1.550832910432087;35.99697270482216
46382;BME280;66809;52.974;-2.514;2023-04-04T03:09:38;1021.2022239610609;;;1.5293361798372913;36.03170364808236
46382;BME280;66809;52.974;-2.514;2023-04-04T03:11:39;1021.188153390361;;;1.5026684956031626;36.060963845607986
46382;BME280;66809;52.974;-2.514;2023-04-04T03:13:38;1021.1750907031684;;;1.4920587843795967;36.07701716741062
46382;BME280;66809;52.974;-2.514;2023-04-04T03:15:39;1021.162533327863;;;1.486990913816141;36.08715161508243
46382;BME280;66809;52.974;-2.514;2023-04-04T03:17:39;1021.150368024164;;;1.4885026678554947;36.08822025100652
46382;BME280;66809;52.974;-2.514;2023-04-04T03:19:38;1021.1379656905287;;;1.479353413831113;36.084085707255554
46382;BME280;66809;52.974;-2.514;2023-04-04T03:21:38;1021.1261421923724;;;1.4665664117193336;36.08276644723587
46382;BME280;66809;52.974;-2.514;2023-04-04T03:23:39;1021.1130399543143;;;1.4483370131726452;36.07913801666944
46382;BME280;66809;52.974;-2.514;2023-04-04T03:25:39;1021.0997565201756;;;1.4415469218895796;36.072895638139336
46382;BME280;66809;52.974;-2.514;2023-04-04T03:27:38;1021.086941383623;;;1.4269300853912144;36.05720452013899
46382;BME280;66809;52.974;-2.514;2023-04-04T03:29:39;1021.0736052780188;;;1.4284082819314332;36.05451242058555
46382;BME280;66809;52.974;-2.514;2023-04-04T03:31:39;1021.0616065172396;;;1.4268720428382966;36.05595518543136
46382;BME280;66809;52.974;-2.514;2023-04-04T03:33:38;1021.0512002810485;;;1.4265089456719475;36.05536174109377
46382;BME280;66809;52.974;-2.514;2023-04-04T03:35:39;1021.0419143045975;;;1.4192906117863333;36.05417285444096
46382;BME280;66809;52.974;-2.514;2023-04-04T03:37:39;1021.0314116482349;;;1.4262396728020341;36.042374829487315
46382;BME280;66809;52.974;-2.514;2023-04-04T03:39:39;1021.0220794071505;;;1.4236702924354048;36.035194216404946
46382;BME280;66809;52.974;-2.514;2023-04-04T03:41:38;1021.0137511480814;;;1.4267381743458298;36.03270375170896
46382;BME280;66809;52.974;-2.514;2023-04-04T03:43:39;1021.0069115778473;;;1.4359123648445646;36.0213949876187
46382;BME280;66809;52.974;-2.514;2023-04-04T03:45:39;1021.0013931452073;;;1.455006834279875;36.00226408046881
46382;BME280;66809;52.974;-2.514;2023-04-04T03:47:38;1020.9954089313753;;;1.4741127417475923;35.97890501349058
46382;BME280;66809;52.974;-2.514;2023-04-04T03:49:39;1020.9895853351148;;;1.48374899735432;35.95584939872232
46382;BME280;66809;52.974;-2.514;2023-04-04T03:51:38;1020.9832236429755;;;1.4922762825848161;35.933282030765476
46382;BME280;66809;52.974;-2.514;2023-04-04T03:53:38;1020.9785908938351;;;1.4973408203006875;35.914266402533755
46382;BME280;66809;52.974;-2.514;2023-04-04T03:55:40;1020.9749023527086;;;1.5107324368830732;35.88975337986835
46382;BME280;66809;52.974;-2.514;2023-04-04T03:57:38;1020.9719260684717;;;1.51871364065676;35.86333907547326
46382;BME280;66809;52.974;-2.514;2023-04-04T03:59:38;1020.9702572556253;;;1.5175206608915883;35.83302397303365
46382;BME280;66809;52.974;-2.514;2023-04-04T04:01:39;1020.9679918068758;;;1.5155241966049442;35.8035803075903
46382;BME280;66809;52.974;-2.514;2023-04-04T04:03:38;1020.9668233450898;;;1.5057352952953675;35.77616311204478
46382;BME280;66809;52.974;-2.514;2023-04-04T04:05:39;1020.9653774237756;;;1.5132222495166523;35.74515274070666
46382;BME280;66809;52.974;-2.514;2023-04-04T04:07:42;1020.9653791026972;;;1.5171876521549845;35.720769600078214
46382;BME280;66809;52.974;-2.514;2023-04-04T04:09:39;1020.9644843883376;;;1.5246647928923218;35.69462866486619
46382;BME280;66809;52.974;-2.514;2023-04-04T04:11:38;1020.9623224056271;;;1.5378142188663024;35.66665088775631
46382;BME280;66809;52.974;-2.514;2023-04-04T04:13:39;1020.9607724759304;;;1.539367053583573;35.63568088886926
46382;BME280;66809;52.974;-2.514;2023-04-04T04:15:38;1020.9600081887254;;;1.53600676260985;35.600467592032864
46382;BME280;66809;52.974;-2.514;2023-04-04T04:17:38;1020.9599443916461;;;1.5326014306867124;35.56543980086016
46382;BME280;66809;52.974;-2.514;2023-04-04T04:19:38;1020.961202385871;;;1.5381395135226337;35.52750735007461
46382;BME280;66809;52.974;-2.514;2023-04-04T04:21:39;1020.9625659079453;;;1.5369047370344715;35.47860531422654
46382;BME280;66809;52.974;-2.514;2023-04-04T04:23:38;1020.9656800883198;;;1.5491048087634278;35.44129111973051
46382;BME280;66809;52.974;-2.514;2023-04-04T04:25:39;1020.9701536706543;;;1.549786931371923;35.40571952133451
46382;BME280;66809;52.974;-2.514;2023-04-04T04:27:39;1020.9737295763978;;;1.5507936681815988;35.37736200610891
46382;BME280;66809;52.974;-2.514;2023-04-04T04:29:38;1020.9786673887064;;;1.5606315658300753;35.34079993613605
46382;BME280;66809;52.974;-2.514;2023-04-04T04:31:39;1020.9840081441322;;;1.569688144808955;35.30597595274424
46382;BME280;66809;52.974;-2.514;2023-04-04T04:33:38;1020.9887417278461;;;1.569958606280964;35.25980925964367
46382;BME280;66809;52.974;-2.514;2023-04-04T04:35:39;1020.9930653829149;;;1.5763617969487251;35.212319011114914
46382;BME280;66809;52.974;-2.514;2023-04-04T04:37:38;1020.9977779357258;;;1.5753032360289363;35.173510225140504
46382;BME280;66809;52.974;-2.514;2023-04-04T04:39:38;1021.0012063431374;;;1.5706489316051429;35.120764755911196
46382;BME280;66809;52.974;-2.514;2023-04-04T04:41:39;1021.0050182923034;;;1.5535691633433946;35.070612291342954
46382;BME280;66809;52.974;-2.514;2023-04-04T04:43:38;1021.0076094175191;;;1.526770598172956;35.03538326523785
46382;BME280;66809;52.974;-2.514;2023-04-04T04:45:40;1021.0080741296176;;;1.4857137133031815;35.01521605714023
46382;BME280;66809;52.974;-2.514;2023-04-04T04:47:39;1021.0085696804028;;;1.44491569395073;35.000649297815826
46382;BME280;66809;52.974;-2.514;2023-04-04T04:49:38;1021.0080976428618;;;1.409995380813209;34.995241604246964
46382;BME280;66809;52.974;-2.514;2023-04-04T04:51:39;1021.0071614996133;;;1.3724669359087724;34.99645760929977
46382;BME280;66809;52.974;-2.514;2023-04-04T04:53:39;1021.0039133246527;;;1.336835584755399;34.99691412958364
46382;BME280;66809;52.974;-2.514;2023-04-04T04:55:38;1020.9999097423123;;;1.3000570470139607;35.00066232940354
46382;BME280;66809;52.974;-2.514;2023-04-04T04:57:39;1020.9940571468021;;;1.2621879490857408;35.01083866490215
46382;BME280;66809;52.974;-2.514;2023-04-04T04:59:38;1020.9878499261541;;;1.2342055329284227;35.02368081923112
46382;BME280;66809;52.974;-2.514;2023-04-04T05:01:38;1020.9810870678011;;;1.2013939846424109;35.03835197156707
46382;BME280;66809;52.974;-2.514;2023-04-04T05:03:39;1020.9727761365908;;;1.1809824998618101;35.052246454079025
46382;BME280;66809;52.974;-2.514;2023-04-04T05:05:38;1020.9627261362705;;;1.1479776818876004;35.06039056064996
46382;BME280;66809;52.974;-2.514;2023-04-04T05:07:43;1020.9508536396966;;;1.1067160246552246;35.06884706168811
46382;BME280;66809;52.974;-2.514;2023-04-04T05:09:38;1020.937889467631;;;1.058876184995245;35.08273610299945
46382;BME280;66809;52.974;-2.514;2023-04-04T05:11:39;1020.9248044857701;;;1.0137063069952716;35.10366744946916
46382;BME280;66809;52.974;-2.514;2023-04-04T05:13:38;1020.9101050581628;;;0.9726994921532489;35.12914645662049
46382;BME280;66809;52.974;-2.514;2023-04-04T05:15:38;1020.8930525518224;;;0.9427454852126473;35.155404441944064
46382;BME280;66809;52.974;-2.514;2023-04-04T05:17:38;1020.875091184574;;;0.9085084368215172;35.178015007752315
46382;BME280;66809;52.974;-2.514;2023-04-04T05:19:38;1020.8548574421543;;;0.8678850135843369;35.21285001112059
46382;BME280;66809;52.974;-2.514;2023-04-04T05:21:39;1020.8342762618302;;;0.8455677707594859;35.2572719484565
46382;BME280;66809;52.974;-2.514;2023-04-04T05:23:38;1020.8151580723861;;;0.8047697364038854;35.28633394353134
46382;BME280;66809;52.974;-2.514;2023-04-04T05:25:39;1020.7974327983483;;;0.7808664223205596;35.31544760896068
46382;BME280;66809;52.974;-2.514;2023-04-04T05:27:39;1020.7808884260994;;;0.7613531659367517;35.33700990084048
46382;BME280;66809;52.974;-2.514;2023-04-04T05:29:39;1020.7626604552552;;;0.737686798158779;35.35516764886601
46382;BME280;66809;52.974;-2.514;2023-04-04T05:31:38;1020.7423772121759;;;0.7201701467680066;35.36414292264622
46382;BME280;66809;52.974;-2.514;2023-04-04T05:33:39;1020.7219821780832;;;0.719850700242733;35.376450050281655
46382;BME280;66809;52.974;-2.514;2023-04-04T05:35:39;1020.7026176694204;;;0.7091544582291345;35.391511990463776
46382;BME280;66809;52.974;-2.514;2023-04-04T05:37:39;1020.6842657694264;;;0.7079782796778191;35.39941895483586
46382;BME280;66809;52.974;-2.514;2023-04-04T05:39:39;1020.6670395656969;;;0.7048448029992755;35.41574107942639
46382;BME280;66809;52.974;-2.514;2023-04-04T05:41:38;1020.6495729208912;;;0.7077352244943789;35.42231079758783
46382;BME280;66809;52.974;-2.514;2023-04-04T05:43:39;1020.6329824678809;;;0.7332654138451383;35.406031565204735
46382;BME280;66809;52.974;-2.514;2023-04-04T05:45:39;1020.6181806395921;;;0.7662827052061835;35.37254010712646
46382;BME280;66809;52.974;-2.514;2023-04-04T05:47:42;1020.6043035914394;;;0.8053152686242202;35.33189712396742
46382;BME280;66809;52.974;-2.514;2023-04-04T05:49:38;1020.5925798910583;;;0.8360857857452915;35.28516081440342
46382;BME280;66809;52.974;-2.514;2023-04-04T05:51:39;1020.5815241342988;;;0.8854670410114819;35.23170358022879
46382;BME280;66809;52.974;-2.514;2023-04-04T05:53:38;1020.5720211824625;;;0.9342564406227478;35.173413079144005
46382;BME280;66809;52.974;-2.514;2023-04-04T05:55:38;1020.5623103689079;;;0.9743607087854798;35.11046453869255
46382;BME280;66809;52.974;-2.514;2023-04-04T05:57:46;1020.552488479399;;;1.0256216882998057;35.03893101689083
46382;BME280;66809;52.974;-2.514;2023-04-04T05:59:39;1020.542835962687;;;1.0629551749060555;34.968161267124174
46382;BME280;66809;52.974;-2.514;2023-04-04T06:01:38;1020.5340055595408;;;1.1048153576204713;34.89034979864023
46382;BME280;66809;52.974;-2.514;2023-04-04T06:03:39;1020.5269616022008;;;1.1454741796560248;34.81533395107813
46382;BME280;66809;52.974;-2.514;2023-04-04T06:05:41;1020.52217189302;;;1.1898531794595735;34.74251304429732
46382;BME280;66809;52.974;-2.514;2023-04-04T06:07:39;1020.5188198299846;;;1.2458593562636264;34.67141220829337
46382;BME280;66809;52.974;-2.514;2023-04-04T06:09:38;1020.5158608901205;;;1.298663210661396;34.60299644253133
46382;BME280;66809;52.974;-2.514;2023-04-04T06:11:39;1020.514000202057;;;1.3480410006379713;34.53071235075434
46382;BME280;66809;52.974;-2.514;2023-04-04T06:13:39;1020.5145163119945;;;1.4162678297789002;34.45843230230813
46382;BME280;66809;52.974;-2.514;2023-04-04T06:15:38;1020.5159555340762;;;1.4554481244434088;34.386739387951245
46382;BME280;66809;52.974;-2.514;2023-04-04T06:17:39;1020.5178434860626;;;1.499432344239838;34.324186222781684
46382;BME280;66809;52.974;-2.514;2023-04-04T06:19:38;1020.5211353463299;;;1.5467518738450226;34.252950735031234
46382;BME280;66809;52.974;-2.514;2023-04-04T06:21:38;1020.5273312200538;;;1.586629499927248;34.183562262607914
46382;BME280;66809;52.974;-2.514;2023-04-04T06:23:39;1020.5350252957293;;;1.6358629324422478;34.12081203113158
46382;BME280;66809;52.974;-2.514;2023-04-04T06:25:38;1020.5417147337462;;;1.6853720424632999;34.05076247506089
46382;BME280;66809;52.974;-2.514;2023-04-04T06:27:38;1020.5482150898953;;;1.7265723623109117;33.9897164580801
46382;BME280;66809;52.974;-2.514;2023-04-04T06:29:39;1020.5562597822301;;;1.765057508135358;33.93776333213814
46382;BME280;66809;52.974;-2.514;2023-04-04T06:31:39;1020.5672002315335;;;1.8021581642005509;33.90051356636425
46382;BME280;66809;52.974;-2.514;2023-04-04T06:33:38;1020.58021188044;;;1.8546754125476452;33.87431431154656
46382;BME280;66809;52.974;-2.514;2023-04-04T06:35:39;1020.5931293453854;;;1.9148047808598498;33.84215232759485
46382;BME280;66809;52.974;-2.514;2023-04-04T06:37:38;1020.6052504442192;;;1.9858211652150275;33.8011106644274
46382;BME280;66809;52.974;-2.514;2023-04-04T06:39:38;1020.6169784930825;;;2.0745156386934047;33.744158918108376
46382;BME280;66809;52.974;-2.514;2023-04-04T06:41:39;1020.6301796086791;;;2.180400999388733;33.680937652543236
46382;BME280;66809;52.974;-2.514;2023-04-04T06:43:38;1020.6435596245192;;;2.290742847199665;33.6108916312517
46382;BME280;66809;52.974;-2.514;2023-04-04T06:45:39;1020.6561423771212;;;2.401502437305385;33.52084506539994
46382;BME280;66809;52.974;-2.514;2023-04-04T06:47:39;1020.6698171950769;;;2.522007903225124;33.429215567849
46382;BME280;66809;52.974;-2.514;2023-04-04T06:49:38;1020.6832511326867;;;2.659054366531389;33.336452277182346
46382;BME280;66809;52.974;-2.514;2023-04-04T06:51:39;1020.6975710264236;;;2.797862188645583;33.23258977393255
46382;BME280;66809;52.974;-2.514;2023-04-04T06:53:38;1020.7129847516233;;;2.9359061798166524;33.10947694565793
46382;BME280;66809;52.974;-2.514;2023-04-04T06:55:39;1020.7285581986373;;;3.091616469753645;32.973437923501265
46382;BME280;66809;52.974;-2.514;2023-04-04T06:57:39;1020.7454603224404;;;3.2421016930938746;32.84970893638403
46382;BME280;66809;52.974;-2.514;2023-04-04T06:59:38;1020.7636951261767;;;3.415428600260992;32.72226948539527
46382;BME280;66809;52.974;-2.514;2023-04-04T07:01:39;1020.7839149195823;;;3.5880703738267825;32.59403422782423
46382;BME280;66809;52.974;-2.514;2023-04-04T07:03:38;1020.8041610996469;;;3.765217380066636;32.45474169742192
46382;BME280;66809;52.974;-2.514;2023-04-04T07:05:38;1020.8237143213906;;;3.9468089748621953;32.30966296188548
46382;BME280;66809;52.974;-2.514;2023-04-04T07:07:39;1020.8438815366056;;;4.123183956625806;32.16585861729285
46382;BME280;66809;52.974;-2.514;2023-04-04T07:09:38;1020.8662877592676;;;4.302002798546591;32.00758928516073
46382;BME280;66809;52.974;-2.514;2023-04-04T07:11:38;1020.8893540412804;;;4.483409557241345;31.845906224077478